createdAt,value
2018-01-11T00:01:49.051Z,231.83
2018-01-11T00:04:16.830Z,245.67
2018-01-11T00:06:43.549Z,246.30
2018-01-11T00:09:28.052Z,237.20
2018-01-11T00:11:59.254Z,173.00
2018-01-11T00:14:34.767Z,162.20
2018-01-11T00:17:02.495Z,168.47
2018-01-11T00:19:34.339Z,173.43
2018-01-11T00:22:06.813Z,160.07
2018-01-11T00:24:35.527Z,176.37
2018-01-11T00:32:34.335Z,185.97
2018-01-11T00:35:07.009Z,166.83
2018-01-11T00:43:07.291Z,143.83
2018-01-11T00:45:34.961Z,143.30
2018-01-11T00:48:06.878Z,139.97
2018-01-11T00:50:33.595Z,140.37
2018-01-11T00:53:00.313Z,148.83
2018-01-11T00:55:27.986Z,148.97
2018-01-11T00:57:55.655Z,143.40
2018-01-11T01:00:22.429Z,155.67
2018-01-11T01:02:50.159Z,162.60
2018-01-11T01:05:18.966Z,153.27
2018-01-11T01:07:49.407Z,212.43
2018-01-11T01:10:18.123Z,238.17
2018-01-11T01:12:58.003Z,236.17
2018-01-11T01:15:33.648Z,208.27
2018-01-11T01:18:02.406Z,198.53
2018-01-11T01:20:30.139Z,191.37
2018-01-11T01:23:00.505Z,200.83
2018-01-11T01:25:32.889Z,182.33
2018-01-11T01:28:03.263Z,188.97
2018-01-11T01:30:35.369Z,202.63
2018-01-11T01:33:03.815Z,192.43
2018-01-11T01:35:30.535Z,184.73
2018-01-11T01:37:57.287Z,218.20
2018-01-11T01:40:25.999Z,200.60
2018-01-11T01:42:53.663Z,176.60
2018-01-11T01:45:21.415Z,170.13
2018-01-11T01:50:48.677Z,148.50
2018-01-11T01:53:17.409Z,136.77
2018-01-11T01:55:44.149Z,143.67
2018-01-11T01:58:10.967Z,154.30
2018-01-11T02:00:42.891Z,145.63
2018-01-11T02:03:10.686Z,134.60
2018-01-11T02:05:37.519Z,168.00
2018-01-11T02:08:06.201Z,158.57
2018-01-11T02:10:32.943Z,158.00
2018-01-11T02:13:01.610Z,153.57
2018-01-11T02:15:30.305Z,141.87
2018-01-11T02:17:59.119Z,145.13
2018-01-11T02:20:25.905Z,139.57
2018-01-11T02:22:54.633Z,147.67
2018-01-11T02:25:25.813Z,148.97
2018-01-11T02:28:06.601Z,151.97
2018-01-11T02:33:33.383Z,170.57
2018-01-11T02:36:01.126Z,169.67
2018-01-11T02:38:33.252Z,155.37
2018-01-11T02:40:59.991Z,159.70
2018-01-11T02:43:26.733Z,153.27
2018-01-11T02:46:03.123Z,153.43
2018-01-11T02:48:31.863Z,129.40
2018-01-11T02:51:00.588Z,124.93
2018-01-11T02:53:27.293Z,150.50
2018-01-11T02:55:55.036Z,178.73
2018-01-11T02:58:26.963Z,153.80
2018-01-11T03:00:53.659Z,97.50
2018-01-11T03:03:21.439Z,98.13
2018-01-11T03:05:50.056Z,95.63
2018-01-11T03:08:17.730Z,85.00
2018-01-11T03:10:44.488Z,70.23
2018-01-11T03:13:11.237Z,76.10
2018-01-11T03:15:38.999Z,71.30
2018-01-11T03:18:11.503Z,76.43
2018-01-11T03:20:52.201Z,78.43
2018-01-11T03:23:18.952Z,73.70
2018-01-11T03:25:47.689Z,75.40
2018-01-11T03:28:18.651Z,77.13
2018-01-11T03:31:00.638Z,79.63
2018-01-11T03:33:27.375Z,76.40
2018-01-11T03:41:32.847Z,74.67
2018-01-11T03:44:05.255Z,75.37
2018-01-11T03:46:33.974Z,74.73
2018-01-11T03:49:01.741Z,71.73
2018-01-11T03:51:28.500Z,71.77
2018-01-11T03:54:06.688Z,71.53
2018-01-11T03:56:33.397Z,74.60
2018-01-11T03:59:01.074Z,76.87
2018-01-11T04:01:27.865Z,68.67
2018-01-11T04:04:11.728Z,73.10
2018-01-11T04:06:39.574Z,60.07
2018-01-11T04:12:02.780Z,65.53
2018-01-11T04:14:43.284Z,68.63
2018-01-11T04:17:12.019Z,69.27
2018-01-11T04:19:39.823Z,71.93
2018-01-11T04:22:11.427Z,83.07
2018-01-11T04:27:27.021Z,73.37
2018-01-11T04:35:26.220Z,69.27
2018-01-11T04:37:53.918Z,75.93
2018-01-11T04:40:20.607Z,75.13
2018-01-11T04:42:49.287Z,81.53
2018-01-11T04:45:25.541Z,72.90
2018-01-11T04:47:55.487Z,77.73
2018-01-11T04:50:33.006Z,73.07
2018-01-11T04:53:00.764Z,66.37
2018-01-11T04:55:28.469Z,66.23
2018-01-11T04:57:56.166Z,64.03
2018-01-11T05:00:26.956Z,65.17
2018-01-11T05:02:57.265Z,69.77
2018-01-11T05:05:24.983Z,68.20
2018-01-11T05:07:52.779Z,63.63
2018-01-11T05:10:19.484Z,62.27
2018-01-11T05:12:50.539Z,62.57
2018-01-11T05:15:23.860Z,60.77
2018-01-11T05:17:55.891Z,53.97
2018-01-11T05:20:31.890Z,56.63
2018-01-11T05:23:00.562Z,58.60
2018-01-11T05:25:40.360Z,56.90
2018-01-11T05:28:08.122Z,119.30
2018-01-11T05:30:51.822Z,113.87
2018-01-11T05:41:35.230Z,117.17
2018-01-11T05:44:03.890Z,128.60
2018-01-11T05:46:31.563Z,110.60
2018-01-11T05:48:58.548Z,116.07
2018-01-11T05:51:26.344Z,122.27
2018-01-11T05:54:06.922Z,100.50
2018-01-11T05:56:34.658Z,109.43
2018-01-11T05:59:01.384Z,102.13
2018-01-11T06:01:28.168Z,122.70
2018-01-11T06:03:56.911Z,138.43
2018-01-11T06:06:24.590Z,145.53
2018-01-11T06:08:51.358Z,172.00
2018-01-11T06:11:21.852Z,168.37
2018-01-11T06:13:50.536Z,168.03
2018-01-11T06:16:17.252Z,179.00
2018-01-11T06:18:48.934Z,157.00
2018-01-11T06:21:15.682Z,157.73
2018-01-11T06:23:42.416Z,158.30
2018-01-11T06:26:10.348Z,152.93
2018-01-11T06:28:38.085Z,160.83
2018-01-11T06:33:51.220Z,165.50
2018-01-11T06:42:03.431Z,147.93
2018-01-11T06:44:31.132Z,153.97
2018-01-11T06:46:57.824Z,136.83
2018-01-11T06:49:25.613Z,140.60
2018-01-11T06:51:52.318Z,143.40
2018-01-11T06:54:19.024Z,132.13
2018-01-11T06:56:45.722Z,130.37
2018-01-11T06:59:12.416Z,124.30
2018-01-11T07:01:39.113Z,127.90
2018-01-11T07:04:05.820Z,135.83
2018-01-11T07:06:33.468Z,121.60
2018-01-11T07:09:06.996Z,125.33
2018-01-11T07:11:35.806Z,122.17
2018-01-11T07:14:10.106Z,122.23
2018-01-11T07:16:40.162Z,137.40
2018-01-11T07:19:11.314Z,117.67
2018-01-11T07:21:38.018Z,113.77
2018-01-11T07:24:06.692Z,111.70
2018-01-11T07:26:34.390Z,107.93
2018-01-11T07:29:01.104Z,118.20
2018-01-11T07:31:29.814Z,108.80
2018-01-11T07:33:56.588Z,123.43
2018-01-11T07:36:30.020Z,104.07
2018-01-11T07:38:59.858Z,106.87
2018-01-11T07:41:26.566Z,113.07
2018-01-11T07:43:58.132Z,108.43
2018-01-11T07:46:26.918Z,115.20
2018-01-11T07:48:53.652Z,121.77
2018-01-11T07:51:24.387Z,114.43
2018-01-11T07:53:52.113Z,112.63
2018-01-11T07:56:26.026Z,122.77
2018-01-11T07:58:52.781Z,123.60
2018-01-11T08:01:21.484Z,124.93
2018-01-11T08:03:52.438Z,111.87
2018-01-11T08:06:19.164Z,106.53
2018-01-11T08:08:58.018Z,103.87
2018-01-11T08:11:31.020Z,105.73
2018-01-11T08:19:33.549Z,103.97
2018-01-11T08:22:05.139Z,121.53
2018-01-11T08:24:31.830Z,109.90
2018-01-11T08:27:06.840Z,112.47
2018-01-11T08:29:34.762Z,111.53
2018-01-11T08:32:01.476Z,108.93
2018-01-11T08:34:30.172Z,108.40
2018-01-11T08:39:43.000Z,137.93
2018-01-11T08:42:09.698Z,140.47
2018-01-11T08:47:33.005Z,147.93
2018-01-11T08:50:00.808Z,149.53
2018-01-11T08:55:17.356Z,148.67
2018-01-11T08:57:47.633Z,152.63
2018-01-11T09:00:23.496Z,155.17
2018-01-11T09:02:53.938Z,155.93
2018-01-11T09:05:23.593Z,144.40
2018-01-11T09:10:40.827Z,148.73
2018-01-11T09:13:08.559Z,140.77
2018-01-11T09:15:35.546Z,111.30
2018-01-11T09:18:02.282Z,107.53
2018-01-11T09:20:28.987Z,124.20
2018-01-11T09:22:57.706Z,116.37
2018-01-11T09:25:37.128Z,116.63
2018-01-11T09:28:07.133Z,121.23
2018-01-11T09:30:33.898Z,133.67
2018-01-11T09:33:00.634Z,141.87
2018-01-11T09:35:28.320Z,143.07
2018-01-11T09:37:55.025Z,150.20
2018-01-11T09:40:22.558Z,151.30
2018-01-11T09:42:49.275Z,141.83
2018-01-11T09:45:17.016Z,138.93
2018-01-11T09:47:43.766Z,144.87
2018-01-11T09:50:11.412Z,136.27
2018-01-11T09:52:38.139Z,140.43
2018-01-11T09:55:05.980Z,133.80
2018-01-11T09:57:33.696Z,133.03
2018-01-11T10:00:02.829Z,130.87
2018-01-11T10:02:29.598Z,136.13
2018-01-11T10:04:56.308Z,140.83
2018-01-11T10:07:23.010Z,136.57
2018-01-11T10:09:55.562Z,147.97
2018-01-11T10:12:22.296Z,150.27
2018-01-11T10:14:48.993Z,168.60
2018-01-11T10:17:15.744Z,158.57
2018-01-11T10:19:52.124Z,161.23
2018-01-11T10:22:20.088Z,150.73
2018-01-11T10:24:46.836Z,148.77
2018-01-11T10:27:14.038Z,153.77
2018-01-11T10:29:47.424Z,149.20
2018-01-11T10:32:14.138Z,142.57
2018-01-11T10:34:48.714Z,150.40
2018-01-11T10:37:25.746Z,138.57
2018-01-11T10:39:52.530Z,136.83
2018-01-11T10:42:19.800Z,141.60
2018-01-11T10:44:46.757Z,140.83
2018-01-11T10:47:13.544Z,138.07
2018-01-11T10:49:50.796Z,119.17
2018-01-11T10:52:17.532Z,108.10
2018-01-11T10:57:46.706Z,113.60
2018-01-11T11:00:14.448Z,116.97
2018-01-11T11:02:46.807Z,109.60
2018-01-11T11:05:13.514Z,115.40
2018-01-11T11:07:40.239Z,119.00
2018-01-11T11:10:06.957Z,110.10
2018-01-11T11:12:34.659Z,109.60
2018-01-11T11:15:01.442Z,119.80
2018-01-11T11:17:29.202Z,119.63
2018-01-11T11:19:55.904Z,122.73
2018-01-11T11:22:26.890Z,119.37
2018-01-11T11:24:54.470Z,115.63
2018-01-11T11:27:22.288Z,111.87
2018-01-11T11:29:59.244Z,119.43
2018-01-11T11:32:26.656Z,110.43
2018-01-11T11:34:53.398Z,99.93
2018-01-11T11:37:20.130Z,104.87
2018-01-11T11:39:46.826Z,91.20
2018-01-11T11:42:31.072Z,99.97
2018-01-11T11:45:04.868Z,96.87
2018-01-11T11:47:40.208Z,91.50
2018-01-11T11:50:07.002Z,96.17
2018-01-11T11:52:33.772Z,101.30
2018-01-11T11:55:02.872Z,94.67
2018-01-11T11:57:36.609Z,84.30
2018-01-11T12:02:44.870Z,89.67
2018-01-11T12:08:03.386Z,99.03
2018-01-11T12:10:34.638Z,102.00
2018-01-11T12:13:01.375Z,113.77
2018-01-11T12:15:28.162Z,116.67
2018-01-11T12:17:55.892Z,115.90
2018-01-11T12:20:26.045Z,113.23
2018-01-11T12:22:52.784Z,118.53
2018-01-11T12:25:24.111Z,115.70
2018-01-11T12:27:50.823Z,117.17
2018-01-11T12:30:17.632Z,115.33
2018-01-11T12:32:45.147Z,111.13
2018-01-11T12:35:24.519Z,108.73
2018-01-11T12:37:51.304Z,112.77
2018-01-11T12:40:18.539Z,107.30
2018-01-11T12:42:45.258Z,113.90
2018-01-11T12:45:13.054Z,110.30
2018-01-11T12:47:41.798Z,110.50
2018-01-11T12:50:16.246Z,119.27
2018-01-11T12:52:42.952Z,111.90
2018-01-11T12:55:09.674Z,104.03
2018-01-11T12:57:36.409Z,106.10
2018-01-11T13:00:03.134Z,99.23
2018-01-11T13:02:29.858Z,106.03
2018-01-11T13:04:56.586Z,99.97
2018-01-11T13:07:23.398Z,103.30
2018-01-11T13:10:06.426Z,99.60
2018-01-11T13:12:33.121Z,101.17
2018-01-11T13:14:59.830Z,109.67
2018-01-11T13:17:31.351Z,112.17
2018-01-11T13:19:59.082Z,106.50
2018-01-11T13:22:27.773Z,101.97
2018-01-11T13:24:55.244Z,106.80
2018-01-11T13:27:21.994Z,120.40
2018-01-11T13:29:50.510Z,127.50
2018-01-11T13:32:18.085Z,122.33
2018-01-11T13:34:45.071Z,129.67
2018-01-11T13:37:11.843Z,143.17
2018-01-11T13:39:42.474Z,133.37
2018-01-11T13:45:00.442Z,130.80
2018-01-11T13:47:27.152Z,128.90
2018-01-11T13:49:53.870Z,144.80
2018-01-11T13:52:20.604Z,135.13
2018-01-11T13:54:54.198Z,138.73
2018-01-11T13:57:21.956Z,142.27
2018-01-11T13:59:53.690Z,134.17
2018-01-11T14:02:23.822Z,145.07
2018-01-11T14:04:51.340Z,135.37
2018-01-11T14:10:08.948Z,134.27
2018-01-11T14:12:35.714Z,124.73
2018-01-11T14:17:48.029Z,122.37
2018-01-11T14:23:10.243Z,117.77
2018-01-11T14:25:37.923Z,123.03
2018-01-11T14:28:17.423Z,117.57
2018-01-11T14:33:41.083Z,111.53
2018-01-11T14:38:56.892Z,98.37
2018-01-11T14:41:23.597Z,112.60
2018-01-11T14:43:50.299Z,112.60
2018-01-11T14:46:17.366Z,97.80
2018-01-11T14:48:44.343Z,115.00
2018-01-11T14:51:11.295Z,101.70
2018-01-11T14:53:38.015Z,98.30
2018-01-11T14:56:06.811Z,92.73
2018-01-11T14:58:35.202Z,95.53
2018-01-11T15:01:07.631Z,102.10
2018-01-11T15:03:34.345Z,117.37
2018-01-11T15:06:01.085Z,106.70
2018-01-11T15:08:27.838Z,106.67
2018-01-11T15:10:54.548Z,103.57
2018-01-11T15:13:21.238Z,103.00
2018-01-11T15:18:42.802Z,114.57
2018-01-11T15:21:09.621Z,96.40
2018-01-11T15:23:36.342Z,110.07
2018-01-11T15:26:03.057Z,118.23
2018-01-11T15:28:37.670Z,112.73
2018-01-11T15:31:04.381Z,123.53
2018-01-11T15:33:31.088Z,120.07
2018-01-11T15:35:57.833Z,117.00
2018-01-11T15:41:11.043Z,109.20
2018-01-11T15:43:37.749Z,120.13
2018-01-11T15:46:05.101Z,105.03
2018-01-11T15:48:32.005Z,103.23
2018-01-11T15:50:58.710Z,98.27
2018-01-11T15:53:25.413Z,92.90
2018-01-11T15:55:52.153Z,95.20
2018-01-11T16:00:54.543Z,97.63
2018-01-11T16:03:22.263Z,98.67
2018-01-11T16:05:48.977Z,93.73
2018-01-11T16:08:16.075Z,90.57
2018-01-11T16:10:43.273Z,97.93
2018-01-11T16:15:59.766Z,84.97
2018-01-11T16:18:26.515Z,92.13
2018-01-11T16:20:53.503Z,89.13
2018-01-11T16:23:20.203Z,88.63
2018-01-11T16:25:46.945Z,85.83
2018-01-11T16:28:14.359Z,82.80
2018-01-11T16:30:41.099Z,81.07
2018-01-11T16:33:07.940Z,81.57
2018-01-11T16:35:36.702Z,78.07
2018-01-11T16:38:06.942Z,77.97
2018-01-11T16:40:33.804Z,78.00
2018-01-11T16:43:00.521Z,77.07
2018-01-11T16:45:39.401Z,82.70
2018-01-11T16:48:07.005Z,79.23
2018-01-11T16:50:33.759Z,77.13
2018-01-11T16:53:15.847Z,70.63
2018-01-11T16:58:41.629Z,64.50
2018-01-11T17:03:58.836Z,67.97
2018-01-11T17:09:05.865Z,61.53
2018-01-11T17:11:32.633Z,59.93
2018-01-11T17:16:34.425Z,60.90
2018-01-11T17:19:03.819Z,59.83
2018-01-11T17:21:30.787Z,59.87
2018-01-11T17:23:59.673Z,59.73
2018-01-11T17:26:26.411Z,59.27
2018-01-11T17:28:53.117Z,64.80
2018-01-11T17:31:19.853Z,64.87
2018-01-11T17:33:47.177Z,60.00
2018-01-11T17:36:13.907Z,63.33
2018-01-11T17:38:40.635Z,63.10
2018-01-11T17:41:07.327Z,68.00
2018-01-11T17:43:34.603Z,68.40
2018-01-11T17:46:01.313Z,73.37
2018-01-11T17:48:28.079Z,72.00
2018-01-11T17:50:54.761Z,73.63
2018-01-11T17:55:57.134Z,86.10
2018-01-11T17:58:23.947Z,79.73
2018-01-11T18:00:50.651Z,80.83
2018-01-11T18:03:17.344Z,76.60
2018-01-11T18:08:52.951Z,77.67
2018-01-11T18:11:19.770Z,79.20
2018-01-11T18:14:06.816Z,74.40
2018-01-11T18:16:44.823Z,92.03
2018-01-11T18:19:17.599Z,82.73
2018-01-11T18:21:50.743Z,81.47
2018-01-11T18:35:22.627Z,80.83
2018-01-11T18:37:49.462Z,76.43
2018-01-11T18:40:16.168Z,79.17
2018-01-11T18:42:42.903Z,78.40
2018-01-11T18:45:09.665Z,67.63
2018-01-11T18:47:36.368Z,70.47
2018-01-11T18:53:08.312Z,64.47
2018-01-11T18:55:36.077Z,60.33
2018-01-11T18:58:08.619Z,66.20
2018-01-11T19:00:37.602Z,64.33
2018-01-11T19:03:06.120Z,60.63
2018-01-11T19:05:33.506Z,64.33
2018-01-11T19:08:00.236Z,63.67
2018-01-11T19:10:26.993Z,56.90
2018-01-11T19:12:53.696Z,57.37
2018-01-11T19:15:20.483Z,62.10
2018-01-11T19:17:47.241Z,66.80
2018-01-11T19:20:15.304Z,57.53
2018-01-11T19:22:42.064Z,64.07
2018-01-11T19:25:08.811Z,65.97
2018-01-11T19:27:39.817Z,60.03
2018-01-11T19:30:06.585Z,69.03
2018-01-11T19:32:38.475Z,68.27
2018-01-11T19:35:05.173Z,73.70
2018-01-11T19:37:32.293Z,70.33
2018-01-11T19:40:00.326Z,71.33
2018-01-11T19:42:27.362Z,73.67
2018-01-11T19:44:54.887Z,76.67
2018-01-11T19:47:21.610Z,67.80
2018-01-11T19:49:48.327Z,63.40
2018-01-11T19:52:15.069Z,61.73
2018-01-11T19:54:42.713Z,67.03
2018-01-11T20:00:00.543Z,61.07
2018-01-11T20:02:27.322Z,58.27
2018-01-11T20:04:54.013Z,59.70
2018-01-11T20:07:20.731Z,60.40
2018-01-11T20:09:47.446Z,54.50
2018-01-11T20:12:15.163Z,54.37
2018-01-11T20:14:41.882Z,57.00
2018-01-11T20:17:08.622Z,55.30
2018-01-11T20:19:35.326Z,56.40
2018-01-11T20:22:02.013Z,65.83
2018-01-11T20:24:29.677Z,52.67
2018-01-11T20:26:56.495Z,61.17
2018-01-11T20:29:23.189Z,65.23
2018-01-11T20:31:49.912Z,60.83
2018-01-11T20:34:16.637Z,70.20
2018-01-11T20:36:43.700Z,62.30
2018-01-11T20:39:10.409Z,65.43
2018-01-11T20:41:37.152Z,66.13
2018-01-11T20:44:03.869Z,61.83
2018-01-11T20:46:30.570Z,61.03
2018-01-11T20:48:57.340Z,48.20
2018-01-11T20:51:24.059Z,48.00
2018-01-11T20:53:54.845Z,49.37
2018-01-11T20:56:21.542Z,50.00
2018-01-11T20:58:48.275Z,46.60
2018-01-11T21:01:14.995Z,52.60
2018-01-11T21:03:41.707Z,50.20
2018-01-11T21:06:08.426Z,47.77
2018-01-11T21:08:35.601Z,44.93
2018-01-11T21:11:02.299Z,49.10
2018-01-11T21:13:29.053Z,50.20
2018-01-11T21:15:55.774Z,51.60
2018-01-11T21:18:24.454Z,49.70
2018-01-11T21:20:51.151Z,46.63
2018-01-11T21:23:17.895Z,47.53
2018-01-11T21:25:44.662Z,53.40
2018-01-11T21:28:11.400Z,49.60
2018-01-11T21:30:38.176Z,50.23
2018-01-11T21:33:05.650Z,52.23
2018-01-11T21:35:32.364Z,52.20
2018-01-11T21:37:59.086Z,51.07
2018-01-11T21:40:26.573Z,47.47
2018-01-11T21:42:53.267Z,41.17
2018-01-11T21:45:19.991Z,40.33
2018-01-11T21:47:46.697Z,42.27
2018-01-11T21:50:13.388Z,43.47
2018-01-11T21:52:40.102Z,41.80
2018-01-11T21:55:06.800Z,42.30
2018-01-11T21:57:33.567Z,44.20
2018-01-11T22:00:00.314Z,44.10
2018-01-11T22:02:35.989Z,43.83
2018-01-11T22:05:02.733Z,45.20
2018-01-11T22:07:29.450Z,45.07
2018-01-11T22:10:00.000Z,41.07
2018-01-11T22:12:26.768Z,43.70
2018-01-11T22:14:53.485Z,44.60
2018-01-11T22:17:21.242Z,40.40
2018-01-11T22:19:49.018Z,43.10
2018-01-11T22:22:17.717Z,40.17
2018-01-11T22:24:44.441Z,43.57
2018-01-11T22:27:12.049Z,41.97
2018-01-11T22:29:57.068Z,42.17
2018-01-11T22:32:24.831Z,42.23
2018-01-11T22:34:56.351Z,43.07
2018-01-11T22:37:23.087Z,43.73
2018-01-11T22:39:49.825Z,43.27
2018-01-11T22:42:16.539Z,43.60
2018-01-11T22:44:47.981Z,41.13
2018-01-11T22:47:20.610Z,41.30
2018-01-11T22:49:47.299Z,41.03
2018-01-11T22:52:14.017Z,44.10
2018-01-11T22:54:48.040Z,43.23
2018-01-11T22:57:26.978Z,40.27
2018-01-11T22:59:53.852Z,39.83
2018-01-11T23:02:22.530Z,31.77
2018-01-11T23:04:50.199Z,37.90
2018-01-11T23:07:18.928Z,37.03
2018-01-11T23:09:49.856Z,39.80
2018-01-11T23:12:16.568Z,41.27
2018-01-11T23:14:45.292Z,40.63
2018-01-11T23:17:12.029Z,42.53
2018-01-11T23:19:38.730Z,38.53
2018-01-11T23:22:05.449Z,45.80
2018-01-11T23:24:32.158Z,42.80
2018-01-11T23:27:04.730Z,45.90
2018-01-11T23:29:32.554Z,41.87
2018-01-11T23:32:05.081Z,43.90
2018-01-11T23:34:31.765Z,43.57
2018-01-11T23:37:01.991Z,44.27
2018-01-11T23:39:28.944Z,41.23
2018-01-11T23:41:55.630Z,42.50
2018-01-11T23:44:24.396Z,41.47
2018-01-11T23:46:53.149Z,45.50
2018-01-11T23:49:19.882Z,42.43
2018-01-11T23:51:52.952Z,44.77
2018-01-11T23:54:19.647Z,42.53
2018-01-11T23:56:47.407Z,42.07
2018-01-11T23:59:14.210Z,42.83
